Time;durP1;ratioP1;P1;durP2;ratioP2;P2;SDS_P1;SDS_P2;PMS_P1;PMS_P2;Temp;Humidity;BMP_temperature;BMP_pressure;BME280_temperature;BME280_humidity;BME280_pressure;Samples;Min_cycle;Max_cycle;Signal;HPM_P1;HPM_P2
2022/09/04 00:03:05;;;;;;;;;;;20.20;87.20;;;;;;8413733;28;19924;-74
2022/09/04 00:07:16;;;;;;;;;;;20.10;87.30;;;;;;8406958;28;19939;-74
2022/09/04 00:11:32;;;;;;;;;;;20.00;87.60;;;;;;8423677;28;19928;-73
2022/09/04 00:15:45;;;;;;;;;;;20.00;87.80;;;;;;8405986;28;19924;-73
2022/09/04 00:19:55;;;;;;;;;;;19.90;88.00;;;;;;8401368;28;19931;-74
2022/09/04 00:24:20;;;;;;;;;;;19.90;88.30;;;;;;8405565;28;20317;-73
2022/09/04 00:28:39;;;;;;;;;;;19.90;88.60;;;;;;8403403;28;19924;-74
2022/09/04 00:32:48;;;;;;;;;;;19.80;88.60;;;;;;8410371;28;19924;-73
2022/09/04 00:36:53;;;;;;;;;;;19.70;88.90;;;;;;8413649;28;20406;-73
2022/09/04 00:41:13;;;;;;;;;;;19.70;89.20;;;;;;8407330;28;19924;-74
2022/09/04 00:45:15;;;;;;;;;;;19.70;89.30;;;;;;8400425;28;19924;-74
2022/09/04 00:49:35;;;;;;;;;;;19.70;89.50;;;;;;8408959;28;19935;-74
2022/09/04 00:53:57;;;;;;;;;;;19.70;90.00;;;;;;8411028;28;20360;-73
2022/09/04 00:58:04;;;;;;;;;;;19.80;90.20;;;;;;8409980;28;19924;-73
2022/09/04 01:02:18;;;;;;;;;;;19.80;90.30;;;;;;8417462;28;19935;-73
2022/09/04 01:06:28;;;;;;;;;;;19.80;90.50;;;;;;8392820;28;21066;-73
2022/09/04 01:10:45;;;;;;;;;;;19.80;90.70;;;;;;8396756;28;19931;-74
2022/09/04 01:14:54;;;;;;;;;;;19.80;90.80;;;;;;8415765;28;19931;-73
2022/09/04 01:19:00;;;;;;;;;;;19.80;90.90;;;;;;8415227;28;19927;-73
2022/09/04 01:23:24;;;;;;;;;;;19.80;90.80;;;;;;8415706;28;19935;-74
2022/09/04 01:27:29;;;;;;;;;;;19.80;90.90;;;;;;8420888;28;19925;-74
2022/09/04 01:31:39;;;;;;;;;;;19.70;91.00;;;;;;8418126;28;19954;-73
2022/09/04 01:35:44;;;;;;;;;;;19.70;91.10;;;;;;8373558;28;1081761;-73
2022/09/04 01:39:49;;;;;;;;;;;19.60;91.20;;;;;;8406637;28;19948;-73
2022/09/04 01:43:52;;;;;;;;;;;19.60;91.20;;;;;;8415776;28;20363;-74
2022/09/04 01:47:56;;;;;;;;;;;19.50;91.30;;;;;;8392758;28;20287;-73
2022/09/04 01:51:58;;;;;;;;;;;19.40;91.50;;;;;;8412869;28;19924;-73
2022/09/04 01:56:07;;;;;;;;;;;19.40;91.90;;;;;;8419263;28;19933;-73
2022/09/04 02:00:09;;;;;;;;;;;19.30;91.90;;;;;;8417666;28;19924;-73
2022/09/04 02:04:26;;;;;;;;;;;19.30;92.20;;;;;;8407289;28;20783;-73
2022/09/04 02:08:34;;;;;;;;;;;19.30;92.30;;;;;;8402905;28;19924;-73
2022/09/04 02:12:41;;;;;;;;;;;19.30;92.40;;;;;;8413623;28;19924;-73
2022/09/04 02:16:55;;;;;;;;;;;19.40;92.60;;;;;;8412758;28;19928;-73
2022/09/04 02:21:01;;;;;;;;;;;19.30;92.70;;;;;;8398087;28;19924;-73
2022/09/04 02:25:21;;;;;;;;;;;19.30;92.50;;;;;;8426001;28;20001;-73
2022/09/04 02:29:39;;;;;;;;;;;19.30;92.80;;;;;;8409684;28;19932;-73
2022/09/04 02:33:50;;;;;;;;;;;19.30;93.00;;;;;;8403231;28;19924;-74
2022/09/04 02:37:52;;;;;;;;;;;19.30;93.10;;;;;;8386435;28;20277;-73
2022/09/04 02:42:02;;;;;;;;;;;19.30;93.20;;;;;;8414567;28;19935;-73
2022/09/04 02:46:18;;;;;;;;;;;19.20;93.40;;;;;;8386583;28;19928;-73
2022/09/04 02:50:38;;;;;;;;;;;19.20;93.90;;;;;;8410166;28;20010;-73
2022/09/04 02:54:49;;;;;;;;;;;19.20;93.80;;;;;;8422023;28;19931;-73
2022/09/04 02:59:10;;;;;;;;;;;19.20;93.90;;;;;;8416335;28;19934;-73
2022/09/04 03:03:32;;;;;;;;;;;19.20;94.10;;;;;;8409519;28;19924;-73
2022/09/04 03:07:46;;;;;;;;;;;19.10;94.20;;;;;;8387320;28;19935;-73
2022/09/04 03:11:56;;;;;;;;;;;19.10;94.40;;;;;;8409651;28;20314;-73
2022/09/04 03:16:17;;;;;;;;;;;19.10;94.50;;;;;;8431278;28;19936;-74
2022/09/04 03:20:26;;;;;;;;;;;19.00;94.70;;;;;;8413478;28;19925;-73
2022/09/04 03:24:32;;;;;;;;;;;19.00;95.10;;;;;;8411375;28;20050;-73
2022/09/04 03:28:34;;;;;;;;;;;19.00;95.30;;;;;;8398118;28;20359;-73
2022/09/04 03:32:55;;;;;;;;;;;18.90;95.40;;;;;;8413865;28;19932;-74
2022/09/04 03:36:57;;;;;;;;;;;18.90;95.50;;;;;;8411697;28;19928;-74
2022/09/04 03:41:03;;;;;;;;;;;18.90;95.70;;;;;;8399091;28;19924;-74
2022/09/04 03:45:20;;;;;;;;;;;18.90;95.80;;;;;;8409639;28;20421;-73
2022/09/04 03:49:37;;;;;;;;;;;18.80;95.90;;;;;;8413436;28;21840;-73
2022/09/04 03:53:42;;;;;;;;;;;18.80;96.00;;;;;;8409066;28;19943;-73
2022/09/04 03:57:43;;;;;;;;;;;18.70;96.10;;;;;;8405343;28;19928;-73
2022/09/04 04:01:54;;;;;;;;;;;18.70;96.40;;;;;;8410247;28;19935;-73
2022/09/04 04:06:13;;;;;;;;;;;18.70;96.90;;;;;;8403386;28;20442;-73
2022/09/04 04:10:32;;;;;;;;;;;18.60;97.20;;;;;;8405019;28;19924;-73
2022/09/04 04:14:36;;;;;;;;;;;18.50;97.20;;;;;;8410225;28;19931;-73
2022/09/04 04:18:38;;;;;;;;;;;18.50;97.30;;;;;;8416919;28;19928;-73
2022/09/04 04:22:49;;;;;;;;;;;18.50;97.40;;;;;;8390754;28;19950;-72
2022/09/04 04:26:56;;;;;;;;;;;18.50;97.60;;;;;;8395732;28;19924;-73
2022/09/04 04:31:07;;;;;;;;;;;18.50;97.70;;;;;;8401281;28;19943;-74
2022/09/04 04:35:15;;;;;;;;;;;18.50;97.80;;;;;;8414003;28;19977;-73
2022/09/04 04:39:21;;;;;;;;;;;18.50;98.00;;;;;;8414490;28;19928;-73
2022/09/04 04:43:41;;;;;;;;;;;18.50;98.10;;;;;;8396958;28;19924;-73
2022/09/04 04:47:42;;;;;;;;;;;18.40;98.20;;;;;;8419637;28;20280;-73
2022/09/04 04:51:53;;;;;;;;;;;18.40;98.40;;;;;;8416602;28;19932;-73
2022/09/04 04:55:58;;;;;;;;;;;18.40;98.50;;;;;;8415962;28;19932;-74
2022/09/04 05:00:18;;;;;;;;;;;18.40;98.70;;;;;;8417287;28;19927;-73
2022/09/04 05:04:36;;;;;;;;;;;18.40;98.80;;;;;;8401967;28;19928;-73
2022/09/04 05:08:44;;;;;;;;;;;18.30;98.90;;;;;;8433122;28;19934;-73
2022/09/04 05:12:53;;;;;;;;;;;18.30;99.00;;;;;;8396776;28;20391;-73
2022/09/04 05:17:04;;;;;;;;;;;18.30;99.10;;;;;;8409714;28;19936;-73
2022/09/04 05:21:06;;;;;;;;;;;18.30;99.30;;;;;;8395584;28;19932;-73
2022/09/04 05:25:10;;;;;;;;;;;18.30;99.40;;;;;;8420210;28;19928;-73
2022/09/04 05:29:16;;;;;;;;;;;18.30;99.60;;;;;;8410787;28;20517;-73
2022/09/04 05:33:35;;;;;;;;;;;18.30;99.80;;;;;;8404462;28;19932;-73
2022/09/04 05:37:47;;;;;;;;;;;18.30;99.90;;;;;;8410894;28;20038;-73
2022/09/04 05:41:52;;;;;;;;;;;18.30;99.90;;;;;;8409433;28;19925;-72
2022/09/04 05:46:05;;;;;;;;;;;18.30;99.90;;;;;;8412067;28;19928;-73
2022/09/04 05:50:13;;;;;;;;;;;18.30;99.90;;;;;;8400990;28;19950;-73
2022/09/04 05:54:33;;;;;;;;;;;18.30;99.90;;;;;;8417464;28;19928;-74
2022/09/04 05:58:38;;;;;;;;;;;18.30;99.90;;;;;;8422136;28;19932;-73
2022/09/04 06:02:58;;;;;;;;;;;18.40;99.90;;;;;;8412279;28;19925;-73
2022/09/04 06:07:18;;;;;;;;;;;18.40;99.90;;;;;;8418955;28;19924;-72
2022/09/04 06:11:20;;;;;;;;;;;18.40;99.90;;;;;;8411682;28;19924;-73
2022/09/04 06:15:32;;;;;;;;;;;18.40;99.90;;;;;;8405590;28;20309;-73
2022/09/04 06:19:57;;;;;;;;;;;18.50;99.90;;;;;;8391719;28;19931;-73
2022/09/04 06:23:58;;;;;;;;;;;18.50;99.90;;;;;;8411987;28;19931;-74
2022/09/04 06:28:22;;;;;;;;;;;18.50;99.90;;;;;;8404058;28;20001;-73
2022/09/04 06:32:32;;;;;;;;;;;18.60;99.90;;;;;;8419461;28;19931;-73
2022/09/04 06:36:34;;;;;;;;;;;18.70;99.90;;;;;;8405237;28;19924;-74
2022/09/04 06:40:37;;;;;;;;;;;18.80;99.90;;;;;;8408071;28;19924;-73
2022/09/04 06:44:57;;;;;;;;;;;18.90;99.90;;;;;;8410064;28;19928;-74
2022/09/04 06:49:05;;;;;;;;;;;19.00;99.90;;;;;;8412204;28;19931;-73
2022/09/04 06:53:30;;;;;;;;;;;19.00;99.90;;;;;;8415586;28;20364;-73
2022/09/04 06:57:51;;;;;;;;;;;19.10;99.90;;;;;;8397604;28;19940;-73
2022/09/04 07:01:53;;;;;;;;;;;19.20;99.90;;;;;;8416035;28;19924;-73
2022/09/04 07:06:11;;;;;;;;;;;19.30;99.90;;;;;;8389237;28;19928;-73
2022/09/04 07:10:32;;;;;;;;;;;19.40;99.90;;;;;;8413289;28;19931;-73
2022/09/04 07:14:57;;;;;;;;;;;19.40;99.90;;;;;;8409820;28;19924;-73
2022/09/04 07:19:13;;;;;;;;;;;19.50;99.90;;;;;;8398134;28;20379;-73
2022/09/04 07:23:22;;;;;;;;;;;19.60;99.90;;;;;;8418037;28;19939;-73
2022/09/04 07:27:34;;;;;;;;;;;19.80;99.90;;;;;;8388627;28;19924;-73
2022/09/04 07:31:40;;;;;;;;;;;19.80;99.90;;;;;;8412001;28;19955;-73
2022/09/04 07:35:55;;;;;;;;;;;19.90;99.90;;;;;;8421430;28;19924;-73
2022/09/04 07:55:02;;;;;;;;;;;20.20;99.90;;;;;;8416229;28;19928;-73
2022/09/04 07:59:29;;;;;;;;;;;20.40;99.90;;;;;;8421504;28;19924;-73
2022/09/04 08:03:50;;;;;;;;;;;20.50;99.90;;;;;;8420147;28;19928;-73
2022/09/04 08:08:02;;;;;;;;;;;20.60;99.90;;;;;;8419154;28;19932;-74
2022/09/04 08:12:11;;;;;;;;;;;20.70;99.90;;;;;;8426487;28;19924;-73
2022/09/04 08:16:22;;;;;;;;;;;20.80;99.90;;;;;;8425227;28;20011;-73
2022/09/04 08:20:32;;;;;;;;;;;20.90;99.90;;;;;;8416779;28;19928;-73
2022/09/04 08:24:37;;;;;;;;;;;21.00;99.90;;;;;;8420215;28;19932;-73
2022/09/04 08:28:54;;;;;;;;;;;21.10;99.90;;;;;;8429113;28;20256;-73
2022/09/04 08:33:15;;;;;;;;;;;21.10;99.90;;;;;;8421436;28;19924;-73
2022/09/04 08:37:24;;;;;;;;;;;21.20;99.90;;;;;;8418009;28;19932;-73
2022/09/04 08:41:38;;;;;;;;;;;21.30;99.90;;;;;;8401105;28;19925;-73
2022/09/04 08:45:58;;;;;;;;;;;21.40;99.90;;;;;;8414027;28;19925;-73
2022/09/04 08:50:22;;;;;;;;;;;21.60;99.90;;;;;;8415868;28;20364;-73
2022/09/04 08:54:24;;;;;;;;;;;21.70;99.90;;;;;;8416289;28;19939;-73
2022/09/04 08:58:29;;;;;;;;;;;21.80;99.90;;;;;;8420775;28;19924;-73
2022/09/04 09:02:44;;;;;;;;;;;21.90;99.90;;;;;;8412891;28;20232;-73
2022/09/04 09:06:46;;;;;;;;;;;22.10;99.90;;;;;;8417670;28;20011;-73
2022/09/04 09:11:07;;;;;;;;;;;22.20;99.90;;;;;;8415223;28;19928;-73
2022/09/04 09:15:21;;;;;;;;;;;22.20;99.90;;;;;;8407768;28;20033;-73
2022/09/04 09:19:25;;;;;;;;;;;22.30;99.90;;;;;;8411789;28;20261;-73
2022/09/04 09:23:46;;;;;;;;;;;22.40;99.90;;;;;;8400104;28;19924;-74
2022/09/04 09:27:51;;;;;;;;;;;22.50;99.90;;;;;;8408898;28;19924;-73
2022/09/04 09:32:17;;;;;;;;;;;22.60;99.90;;;;;;8409653;28;19938;-74
2022/09/04 09:36:28;;;;;;;;;;;22.70;99.90;;;;;;8403494;28;20386;-73
2022/09/04 09:40:50;;;;;;;;;;;22.80;99.90;;;;;;8415250;28;19924;-73
2022/09/04 09:44:55;;;;;;;;;;;22.90;99.90;;;;;;8408520;28;19931;-73
2022/09/04 09:49:20;;;;;;;;;;;23.00;99.90;;;;;;8417839;28;20240;-74
2022/09/04 09:53:40;;;;;;;;;;;23.10;99.90;;;;;;8407986;28;19931;-73
2022/09/04 09:57:46;;;;;;;;;;;23.20;99.90;;;;;;8413634;28;19958;-73
2022/09/04 10:01:57;;;;;;;;;;;23.30;99.90;;;;;;8414415;28;20295;-73
2022/09/04 10:06:08;;;;;;;;;;;23.50;99.90;;;;;;8412514;28;19930;-73
2022/09/04 10:10:23;;;;;;;;;;;23.60;99.90;;;;;;8410541;28;19924;-73
2022/09/04 10:14:44;;;;;;;;;;;23.70;99.90;;;;;;8408203;28;19940;-73
2022/09/04 10:19:01;;;;;;;;;;;23.80;99.90;;;;;;8406882;28;19950;-73
2022/09/04 10:23:19;;;;;;;;;;;23.80;99.90;;;;;;8418387;28;19924;-73
2022/09/04 10:27:27;;;;;;;;;;;23.90;99.90;;;;;;8414631;28;19935;-73
2022/09/04 10:31:37;;;;;;;;;;;24.00;99.90;;;;;;8408874;28;20256;-73
2022/09/04 10:35:51;;;;;;;;;;;24.10;99.90;;;;;;8411631;28;19924;-73
2022/09/04 10:44:32;;;;;;;;;;;24.20;99.90;;;;;;8411820;28;20293;-73
2022/09/04 10:48:40;;;;;;;;;;;24.20;99.90;;;;;;8418340;28;20352;-74
2022/09/04 10:52:53;;;;;;;;;;;24.30;99.90;;;;;;8413914;28;19920;-73
2022/09/04 10:57:03;;;;;;;;;;;24.40;99.90;;;;;;8399499;28;20367;-73
2022/09/04 11:01:14;;;;;;;;;;;24.40;99.90;;;;;;8417699;28;19931;-73
2022/09/04 11:05:31;;;;;;;;;;;24.50;99.90;;;;;;8423083;28;19967;-73
2022/09/04 11:09:35;;;;;;;;;;;24.50;99.90;;;;;;8424192;28;19928;-74
2022/09/04 11:13:49;;;;;;;;;;;24.60;99.90;;;;;;8405529;28;20291;-74
2022/09/04 11:17:58;;;;;;;;;;;24.70;99.90;;;;;;8413817;28;20437;-73
2022/09/04 11:22:07;;;;;;;;;;;24.90;99.90;;;;;;8403297;28;20044;-73
2022/09/04 11:26:19;;;;;;;;;;;25.00;99.90;;;;;;8409740;28;19939;-74
2022/09/04 11:30:37;;;;;;;;;;;25.20;99.90;;;;;;8407203;28;20303;-74
2022/09/04 11:34:58;;;;;;;;;;;25.30;99.90;;;;;;8414363;28;20294;-74
2022/09/04 11:39:26;;;;;;;;;;;25.40;99.90;;;;;;8380300;28;19928;-73
2022/09/04 11:43:36;;;;;;;;;;;25.50;99.90;;;;;;8354504;28;19925;-74
2022/09/04 11:47:57;;;;;;;;;;;25.50;99.90;;;;;;8380385;28;19975;-74
2022/09/04 11:52:05;;;;;;;;;;;25.40;99.90;;;;;;8372229;28;19925;-73
2022/09/04 11:56:06;;;;;;;;;;;25.50;99.90;;;;;;8362333;28;19924;-74
2022/09/04 12:00:10;;;;;;;;;;;25.60;99.90;;;;;;8365814;28;20338;-74
2022/09/04 12:04:28;;;;;;;;;;;25.50;99.90;;;;;;8368813;28;19974;-74
2022/09/04 12:08:48;;;;;;;;;;;25.40;99.90;;;;;;8361694;28;20385;-73
2022/09/04 12:13:03;;;;;;;;;;;25.40;99.90;;;;;;8370595;28;19932;-73
2022/09/04 12:17:18;;;;;;;;;;;25.40;99.90;;;;;;8367778;28;19961;-74
2022/09/04 12:21:39;;;;;;;;;;;25.40;99.90;;;;;;8361321;28;20529;-74
2022/09/04 12:26:03;;;;;;;;;;;25.40;99.90;;;;;;8347877;28;19931;-74
2022/09/04 12:30:08;;;;;;;;;;;25.40;99.90;;;;;;8371220;28;20272;-74
2022/09/04 12:34:13;;;;;;;;;;;25.30;99.90;;;;;;8356556;28;19943;-74
2022/09/04 12:38:25;;;;;;;;;;;25.30;99.90;;;;;;8396273;28;19943;-73
2022/09/04 12:42:33;;;;;;;;;;;25.30;99.90;;;;;;8393773;28;20394;-74
2022/09/04 12:46:54;;;;;;;;;;;25.30;99.90;;;;;;8392395;28;20283;-74
2022/09/04 12:51:00;;;;;;;;;;;25.30;99.90;;;;;;8379366;28;20658;-74
2022/09/04 12:55:21;;;;;;;;;;;25.30;99.90;;;;;;8377414;28;19932;-73
2022/09/04 12:59:32;;;;;;;;;;;25.30;99.90;;;;;;8389152;28;19932;-74
2022/09/04 13:03:39;;;;;;;;;;;25.40;99.90;;;;;;8391494;28;19924;-73
2022/09/04 13:07:43;;;;;;;;;;;25.40;99.90;;;;;;8383744;28;20015;-73
2022/09/04 13:11:52;;;;;;;;;;;25.50;99.90;;;;;;8385578;28;20968;-74
2022/09/04 13:16:12;;;;;;;;;;;25.60;99.90;;;;;;8395910;28;19925;-74
2022/09/04 13:20:19;;;;;;;;;;;25.60;99.90;;;;;;8390821;28;19929;-74
2022/09/04 13:24:24;;;;;;;;;;;25.60;99.90;;;;;;8394465;28;20446;-73
2022/09/04 13:28:55;;;;;;;;;;;25.70;99.90;;;;;;8398723;28;19993;-73
2022/09/04 13:33:17;;;;;;;;;;;25.70;99.90;;;;;;8323813;28;20367;-73
2022/09/04 13:37:24;;;;;;;;;;;25.90;99.90;;;;;;8391321;28;19924;-74
2022/09/04 13:41:41;;;;;;;;;;;25.90;99.90;;;;;;8374184;28;19932;-74
2022/09/04 13:45:50;;;;;;;;;;;26.00;99.90;;;;;;8389301;28;20279;-73
2022/09/04 13:50:01;;;;;;;;;;;26.00;99.90;;;;;;8392734;28;19928;-74
2022/09/04 13:54:03;;;;;;;;;;;26.10;99.90;;;;;;8370756;28;19950;-74
2022/09/04 13:58:12;;;;;;;;;;;26.20;99.90;;;;;;8392872;28;20421;-74
2022/09/04 14:02:24;;;;;;;;;;;26.20;99.90;;;;;;8390687;28;20390;-74
2022/09/04 14:06:26;;;;;;;;;;;26.20;99.90;;;;;;8396837;28;19940;-74
2022/09/04 14:10:37;;;;;;;;;;;26.30;99.90;;;;;;8376417;28;19928;-75
2022/09/04 14:14:47;;;;;;;;;;;26.30;99.90;;;;;;8394232;28;19925;-74
2022/09/04 14:18:55;;;;;;;;;;;26.30;99.90;;;;;;8391149;28;20245;-73
2022/09/04 14:23:03;;;;;;;;;;;26.40;99.90;;;;;;8391807;28;19928;-73
2022/09/04 14:27:08;;;;;;;;;;;26.40;99.90;;;;;;8394628;28;19933;-73
2022/09/04 14:31:12;;;;;;;;;;;26.40;99.90;;;;;;8393973;28;19932;-73
2022/09/04 14:35:24;;;;;;;;;;;26.50;99.90;;;;;;8391225;28;19928;-73
2022/09/04 14:39:28;;;;;;;;;;;26.60;99.90;;;;;;8395342;28;19932;-75
2022/09/04 14:43:43;;;;;;;;;;;26.70;99.90;;;;;;8390944;28;20306;-75
2022/09/04 14:47:53;;;;;;;;;;;26.70;99.90;;;;;;8392832;28;19923;-74
2022/09/04 14:51:55;;;;;;;;;;;26.70;99.90;;;;;;8384797;28;20292;-74
2022/09/04 14:56:06;;;;;;;;;;;26.70;99.90;;;;;;8381466;28;19935;-74
2022/09/04 15:00:08;;;;;;;;;;;26.70;99.90;;;;;;8404273;28;19928;-74
2022/09/04 15:04:19;;;;;;;;;;;26.80;99.90;;;;;;8403821;28;19924;-73
2022/09/04 15:08:26;;;;;;;;;;;26.80;99.90;;;;;;8401329;28;19924;-74
2022/09/04 15:12:32;;;;;;;;;;;26.80;99.90;;;;;;8398467;28;20012;-73
2022/09/04 15:16:37;;;;;;;;;;;26.90;99.90;;;;;;8405175;28;19932;-73
2022/09/04 15:20:44;;;;;;;;;;;26.90;99.90;;;;;;8403220;28;19924;-74
2022/09/04 15:24:55;;;;;;;;;;;27.00;99.90;;;;;;8380725;28;19925;-73
2022/09/04 15:29:10;;;;;;;;;;;27.10;99.90;;;;;;8377937;28;19951;-74
2022/09/04 15:33:16;;;;;;;;;;;27.20;99.90;;;;;;8388271;28;19929;-73
2022/09/04 15:37:24;;;;;;;;;;;27.30;99.90;;;;;;8386912;28;19928;-74
2022/09/04 15:41:43;;;;;;;;;;;27.70;99.90;;;;;;8381455;28;20371;-73
2022/09/04 15:45:47;;;;;;;;;;;28.00;99.90;;;;;;8395944;28;21401;-74
2022/09/04 15:50:01;;;;;;;;;;;28.30;99.90;;;;;;8382004;28;19939;-73
2022/09/04 15:54:08;;;;;;;;;;;28.60;99.90;;;;;;8385686;28;19928;-73
2022/09/04 15:58:31;;;;;;;;;;;28.70;99.90;;;;;;8384853;28;20260;-73
2022/09/04 16:02:37;;;;;;;;;;;28.70;99.90;;;;;;8387556;28;19935;-75
2022/09/04 16:06:48;;;;;;;;;;;28.80;99.90;;;;;;8385934;28;20334;-73
2022/09/04 16:10:52;;;;;;;;;;;29.10;99.90;;;;;;8387196;28;19940;-73
2022/09/04 16:15:12;;;;;;;;;;;29.30;99.90;;;;;;8386711;28;19931;-74
2022/09/04 16:19:21;;;;;;;;;;;29.50;99.90;;;;;;8392790;28;19943;-73
2022/09/04 16:23:28;;;;;;;;;;;29.60;99.90;;;;;;8387791;28;19928;-74
2022/09/04 16:27:30;;;;;;;;;;;29.60;99.90;;;;;;8393229;28;19925;-74
2022/09/04 16:31:33;;;;;;;;;;;29.40;99.00;;;;;;8391161;28;19982;-74
2022/09/04 16:35:39;;;;;;;;;;;29.10;98.40;;;;;;8394652;28;19971;-73
2022/09/04 16:39:48;;;;;;;;;;;28.70;98.20;;;;;;8381860;28;19925;-73
2022/09/04 16:44:09;;;;;;;;;;;28.40;97.80;;;;;;8394683;28;19925;-73
2022/09/04 16:48:20;;;;;;;;;;;28.30;97.80;;;;;;8396399;28;19935;-73
2022/09/04 16:52:45;;;;;;;;;;;28.10;97.40;;;;;;8391749;28;20471;-73
2022/09/04 16:56:54;;;;;;;;;;;27.90;97.10;;;;;;8394120;28;20132;-73
2022/09/04 17:01:27;;;;;;;;;;;28.00;97.00;;;;;;8394052;28;19924;-74
2022/09/04 17:05:33;;;;;;;;;;;28.30;97.60;;;;;;8400092;28;20397;-73
2022/09/04 17:09:54;;;;;;;;;;;28.90;98.10;;;;;;8387980;28;19933;-74
2022/09/04 17:13:57;;;;;;;;;;;29.40;98.20;;;;;;8376443;28;19954;-74
2022/09/04 17:18:04;;;;;;;;;;;29.80;98.40;;;;;;8375330;28;19924;-74
2022/09/04 17:27:13;;;;;;;;;;;30.20;98.40;;;;;;8392767;28;20337;-73
2022/09/04 17:31:41;;;;;;;;;;;30.40;98.60;;;;;;8394436;28;19932;-73
2022/09/04 17:35:50;;;;;;;;;;;30.30;98.60;;;;;;8403830;28;19936;-73
2022/09/04 17:40:26;;;;;;;;;;;30.10;98.60;;;;;;8400270;28;19971;-73
2022/09/04 17:44:53;;;;;;;;;;;29.60;98.20;;;;;;8398933;28;19929;-73
2022/09/04 17:48:55;;;;;;;;;;;29.10;97.90;;;;;;8393638;28;20688;-74
2022/09/04 17:53:06;;;;;;;;;;;28.50;97.70;;;;;;8393975;28;19929;-74
2022/09/04 17:57:08;;;;;;;;;;;28.10;97.60;;;;;;8399465;28;20031;-73
2022/09/04 18:01:16;;;;;;;;;;;27.60;97.40;;;;;;8402454;28;19939;-73
2022/09/04 18:05:20;;;;;;;;;;;27.30;97.20;;;;;;8392168;28;20015;-73
2022/09/04 18:09:26;;;;;;;;;;;26.90;97.10;;;;;;8396914;28;20035;-73
2022/09/04 18:13:38;;;;;;;;;;;26.60;97.00;;;;;;8392900;28;19932;-73
2022/09/04 18:17:46;;;;;;;;;;;26.30;96.90;;;;;;8394248;28;19931;-73
2022/09/04 18:22:09;;;;;;;;;;;26.00;96.80;;;;;;8398853;28;19928;-73
2022/09/04 18:26:41;;;;;;;;;;;25.80;96.80;;;;;;8400465;28;19977;-72
2022/09/04 18:31:18;;;;;;;;;;;25.60;96.70;;;;;;8395595;28;19931;-73
2022/09/04 18:35:49;;;;;;;;;;;25.30;96.60;;;;;;8329614;28;20011;-74
2022/09/04 18:40:16;;;;;;;;;;;25.10;96.60;;;;;;8393124;28;20110;-73
2022/09/04 18:44:25;;;;;;;;;;;24.90;96.60;;;;;;8395118;28;19932;-73
2022/09/04 18:48:47;;;;;;;;;;;24.80;96.60;;;;;;8397515;28;19990;-73
2022/09/04 18:53:09;;;;;;;;;;;24.60;96.60;;;;;;8393240;28;19994;-72
2022/09/04 18:57:19;;;;;;;;;;;24.40;96.70;;;;;;8387760;28;19932;-72
2022/09/04 19:01:37;;;;;;;;;;;24.30;96.70;;;;;;8387402;28;19986;-73
2022/09/04 19:05:43;;;;;;;;;;;24.20;96.70;;;;;;8389058;28;19924;-73
2022/09/04 19:10:04;;;;;;;;;;;24.00;96.70;;;;;;8386662;28;19936;-72
2022/09/04 19:14:24;;;;;;;;;;;23.90;96.70;;;;;;8387879;28;20342;-73
2022/09/04 19:18:32;;;;;;;;;;;23.80;96.70;;;;;;8390113;28;19924;-73
2022/09/04 19:22:36;;;;;;;;;;;23.70;96.60;;;;;;8366386;28;20019;-72
2022/09/04 19:26:40;;;;;;;;;;;23.60;96.70;;;;;;8389836;28;19934;-73
2022/09/04 19:30:48;;;;;;;;;;;23.50;96.70;;;;;;8384549;28;20178;-72
2022/09/04 19:35:08;;;;;;;;;;;23.40;96.70;;;;;;8386217;28;19932;-73
2022/09/04 19:39:19;;;;;;;;;;;23.30;96.80;;;;;;8387591;28;20000;-73
2022/09/04 19:44:00;;;;;;;;;;;23.20;96.90;;;;;;8388661;28;19970;-73
2022/09/04 19:48:36;;;;;;;;;;;23.10;96.90;;;;;;8390210;28;20027;-73
2022/09/04 19:52:42;;;;;;;;;;;23.00;96.90;;;;;;8365021;28;20651;-73
2022/09/04 19:57:10;;;;;;;;;;;23.00;96.90;;;;;;8382469;28;20261;-72
2022/09/04 20:01:45;;;;;;;;;;;22.90;96.90;;;;;;8386173;28;19967;-73
2022/09/04 20:06:10;;;;;;;;;;;22.80;96.90;;;;;;8388920;28;19928;-72
2022/09/04 20:10:30;;;;;;;;;;;22.70;97.00;;;;;;8390573;28;20027;-73
2022/09/04 20:15:10;;;;;;;;;;;22.60;97.00;;;;;;8387158;28;19929;-73
2022/09/04 20:19:36;;;;;;;;;;;22.50;97.10;;;;;;8358860;28;19932;-73
2022/09/04 20:23:50;;;;;;;;;;;22.40;97.10;;;;;;8387517;28;19933;-73
2022/09/04 20:28:07;;;;;;;;;;;22.40;97.10;;;;;;8388792;28;19995;-73
2022/09/04 20:32:13;;;;;;;;;;;22.30;97.20;;;;;;8387546;28;19928;-72
2022/09/04 20:36:17;;;;;;;;;;;22.20;97.20;;;;;;8386146;28;19975;-73
2022/09/04 20:40:19;;;;;;;;;;;22.20;97.30;;;;;;8384899;28;20272;-73
2022/09/04 20:44:26;;;;;;;;;;;22.10;97.40;;;;;;8372962;28;19962;-73
2022/09/04 20:48:30;;;;;;;;;;;22.00;97.40;;;;;;8388752;28;20005;-72
2022/09/04 20:52:57;;;;;;;;;;;22.00;97.50;;;;;;8386762;28;20022;-73
2022/09/04 20:57:33;;;;;;;;;;;21.90;97.50;;;;;;8387967;28;19960;-72
2022/09/04 21:02:13;;;;;;;;;;;21.80;97.50;;;;;;8383936;28;19982;-73
2022/09/04 21:06:47;;;;;;;;;;;21.70;97.50;;;;;;8407270;28;20018;-73
2022/09/04 21:10:55;;;;;;;;;;;21.60;97.50;;;;;;8398353;28;19931;-73
2022/09/04 21:15:02;;;;;;;;;;;21.60;97.60;;;;;;8415966;28;20402;-72
2022/09/04 21:19:04;;;;;;;;;;;21.50;97.70;;;;;;8403259;28;19924;-73
2022/09/04 21:23:29;;;;;;;;;;;21.40;97.70;;;;;;8418965;28;19959;-73
2022/09/04 21:27:52;;;;;;;;;;;21.40;97.70;;;;;;8410639;28;19924;-73
2022/09/04 21:32:12;;;;;;;;;;;21.30;97.80;;;;;;8401575;28;19936;-73
2022/09/04 21:36:32;;;;;;;;;;;21.20;97.80;;;;;;8409728;28;19924;-73
2022/09/04 21:41:03;;;;;;;;;;;21.10;97.80;;;;;;8412066;28;19924;-73
2022/09/04 21:45:23;;;;;;;;;;;21.10;97.90;;;;;;8403155;28;19924;-72
2022/09/04 21:49:44;;;;;;;;;;;21.00;97.90;;;;;;8400732;28;19924;-73
2022/09/04 21:53:55;;;;;;;;;;;21.00;98.00;;;;;;8411205;28;20025;-72
2022/09/04 21:58:20;;;;;;;;;;;20.90;98.00;;;;;;8389777;28;19925;-73
2022/09/04 22:02:52;;;;;;;;;;;20.90;98.10;;;;;;8410877;28;20303;-73
2022/09/04 22:07:03;;;;;;;;;;;20.80;98.20;;;;;;8392044;28;19972;-73
2022/09/04 22:11:38;;;;;;;;;;;20.70;98.20;;;;;;8389402;28;19924;-73
2022/09/04 22:16:03;;;;;;;;;;;20.70;98.60;;;;;;8397268;28;19928;-73
2022/09/04 22:20:11;;;;;;;;;;;20.60;98.30;;;;;;8402406;28;19933;-73
2022/09/04 22:24:13;;;;;;;;;;;20.60;98.40;;;;;;8406411;28;19931;-73
2022/09/04 22:28:41;;;;;;;;;;;20.50;98.40;;;;;;8409530;28;20328;-73
2022/09/04 22:33:08;;;;;;;;;;;20.50;98.50;;;;;;8385047;28;19932;-73
2022/09/04 22:37:33;;;;;;;;;;;20.50;98.50;;;;;;8400127;28;20560;-73
2022/09/04 22:41:40;;;;;;;;;;;20.40;98.60;;;;;;8362696;28;19975;-73
2022/09/04 22:50:50;;;;;;;;;;;20.40;98.70;;;;;;8403064;28;20271;-73
2022/09/04 22:54:57;;;;;;;;;;;20.30;98.70;;;;;;8399893;28;20287;-73
2022/09/04 23:04:06;;;;;;;;;;;20.20;98.90;;;;;;8406241;28;19923;-73
2022/09/04 23:13:11;;;;;;;;;;;20.10;98.80;;;;;;8403993;28;19927;-73
2022/09/04 23:17:51;;;;;;;;;;;20.00;98.80;;;;;;8419622;28;19971;-73
2022/09/04 23:21:58;;;;;;;;;;;20.00;99.20;;;;;;8386299;28;20279;-72
2022/09/04 23:26:39;;;;;;;;;;;19.90;99.00;;;;;;8419066;28;19970;-73
2022/09/04 23:31:06;;;;;;;;;;;19.90;99.00;;;;;;8404864;28;20382;-73
2022/09/04 23:35:27;;;;;;;;;;;19.90;99.10;;;;;;8402624;28;19924;-73
2022/09/04 23:39:32;;;;;;;;;;;19.80;99.10;;;;;;8415631;28;19969;-73
2022/09/04 23:44:06;;;;;;;;;;;19.80;99.20;;;;;;8412064;28;19931;-73
2022/09/04 23:48:26;;;;;;;;;;;19.70;99.20;;;;;;8388247;28;19933;-73
2022/09/04 23:52:30;;;;;;;;;;;19.60;99.20;;;;;;8385230;28;19924;-73
2022/09/04 23:56:34;;;;;;;;;;;19.60;99.30;;;;;;8405100;28;19928;-73
